createdAt,value
2019-01-13T00:00:46.444Z,82.71
2019-01-13T00:01:46.479Z,82.47
2019-01-13T00:02:46.503Z,82.47
2019-01-13T00:03:46.469Z,82.98
2019-01-13T00:04:46.407Z,83.81
2019-01-13T00:05:46.381Z,82.57
2019-01-13T00:06:46.363Z,82.51
2019-01-13T00:07:46.355Z,83.29
2019-01-13T00:08:46.379Z,83.50
2019-01-13T00:09:46.365Z,81.65
2019-01-13T00:10:46.324Z,81.85
2019-01-13T00:11:46.319Z,81.44
2019-01-13T00:12:46.308Z,82.26
2019-01-13T00:13:46.297Z,82.40
2019-01-13T00:14:46.324Z,83.09
2019-01-13T00:15:46.278Z,84.33
2019-01-13T00:16:46.262Z,83.81
2019-01-13T00:17:46.254Z,83.29
2019-01-13T00:18:46.235Z,82.98
2019-01-13T00:19:46.268Z,82.78
2019-01-13T00:20:46.222Z,82.92
2019-01-13T00:21:46.218Z,83.75
2019-01-13T00:22:46.202Z,84.36
2019-01-13T00:23:47.041Z,84.16
2019-01-13T00:24:46.173Z,83.85
2019-01-13T00:25:46.186Z,84.06
2019-01-13T00:26:46.154Z,84.78
2019-01-13T00:27:46.145Z,83.75
2019-01-13T00:28:46.142Z,83.50
2019-01-13T00:29:46.129Z,83.91
2019-01-13T00:30:46.163Z,83.44
2019-01-13T00:31:55.462Z,83.54
2019-01-13T00:32:46.080Z,83.64
2019-01-13T00:33:46.074Z,83.81
2019-01-13T00:34:46.056Z,84.01
2019-01-13T00:35:46.064Z,86.08
2019-01-13T00:36:46.034Z,86.08
2019-01-13T00:37:46.021Z,83.71
2019-01-13T00:38:46.020Z,83.67
2019-01-13T00:39:46.018Z,83.47
2019-01-13T00:40:46.010Z,83.26
2019-01-13T00:41:45.980Z,83.19
2019-01-13T00:42:45.978Z,84.12
2019-01-13T00:43:45.965Z,84.01
2019-01-13T00:44:45.954Z,84.22
2019-01-13T00:45:45.977Z,83.50
2019-01-13T00:46:45.924Z,84.22
2019-01-13T00:47:45.919Z,84.06
2019-01-13T00:48:45.904Z,85.30
2019-01-13T00:49:45.891Z,86.43
2019-01-13T00:50:45.889Z,84.67
2019-01-13T00:51:45.897Z,86.63
2019-01-13T00:52:45.872Z,85.67
2019-01-13T00:53:45.857Z,86.18
2019-01-13T00:54:45.839Z,85.30
2019-01-13T00:55:45.828Z,84.88
2019-01-13T00:56:45.854Z,87.46
2019-01-13T00:57:45.821Z,84.67
2019-01-13T00:58:45.795Z,85.95
2019-01-13T00:59:45.785Z,85.75
2019-01-13T01:00:45.773Z,87.81
2019-01-13T01:01:45.763Z,88.22
2019-01-13T01:02:45.779Z,88.53
2019-01-13T01:03:45.747Z,89.46
2019-01-13T01:04:45.737Z,88.95
2019-01-13T01:05:45.752Z,88.70
2019-01-13T01:06:45.711Z,88.12
2019-01-13T01:07:47.073Z,87.71
2019-01-13T01:08:45.685Z,87.66
2019-01-13T01:09:45.679Z,86.32
2019-01-13T01:10:45.677Z,86.63
2019-01-13T01:11:45.663Z,86.78
2019-01-13T01:12:45.667Z,87.60
2019-01-13T01:13:45.639Z,85.75
2019-01-13T01:14:45.635Z,85.95
2019-01-13T01:15:45.622Z,86.05
2019-01-13T01:16:45.612Z,85.64
2019-01-13T01:17:45.622Z,86.05
2019-01-13T01:18:45.577Z,85.23
2019-01-13T01:19:45.577Z,85.81
2019-01-13T01:20:45.576Z,84.47
2019-01-13T01:21:45.570Z,84.67
2019-01-13T01:22:45.560Z,85.19
2019-01-13T01:23:45.529Z,84.78
2019-01-13T01:24:45.520Z,84.06
2019-01-13T01:25:45.509Z,83.33
2019-01-13T01:26:45.526Z,83.44
2019-01-13T01:27:45.489Z,84.67
2019-01-13T01:28:45.541Z,84.16
2019-01-13T01:29:45.464Z,84.36
2019-01-13T01:30:45.456Z,83.03
2019-01-13T01:31:45.442Z,83.13
2019-01-13T01:32:45.425Z,83.64
2019-01-13T01:33:45.438Z,82.61
2019-01-13T01:34:45.413Z,82.51
2019-01-13T01:35:45.402Z,81.68
2019-01-13T01:36:45.393Z,81.79
2019-01-13T01:37:45.379Z,81.75
2019-01-13T01:38:45.389Z,81.54
2019-01-13T01:39:45.381Z,81.37
2019-01-13T01:40:45.341Z,81.34
2019-01-13T01:41:45.332Z,80.93
2019-01-13T01:42:45.327Z,79.58
2019-01-13T01:43:45.313Z,80.20
2019-01-13T01:44:45.311Z,81.54
2019-01-13T01:45:45.315Z,80.51
2019-01-13T01:46:45.285Z,79.69
2019-01-13T01:47:45.276Z,79.55
2019-01-13T01:48:45.274Z,79.34
2019-01-13T01:49:45.252Z,79.38
2019-01-13T01:50:45.264Z,81.81
2019-01-13T01:51:45.224Z,80.72
2019-01-13T01:52:45.209Z,78.66
2019-01-13T01:53:45.203Z,77.83
2019-01-13T01:54:45.194Z,78.45
2019-01-13T01:55:45.203Z,78.24
2019-01-13T01:56:45.176Z,78.24
2019-01-13T01:57:45.165Z,78.45
2019-01-13T01:58:45.154Z,78.14
2019-01-13T01:59:45.138Z,78.14
2019-01-13T02:00:45.162Z,78.86
2019-01-13T02:01:45.119Z,78.97
2019-01-13T02:02:45.102Z,78.34
2019-01-13T02:03:45.123Z,78.66
2019-01-13T02:04:45.092Z,78.76
2019-01-13T02:05:45.065Z,78.97
2019-01-13T02:06:45.094Z,79.24
2019-01-13T02:07:45.082Z,78.62
2019-01-13T02:08:45.040Z,79.34
2019-01-13T02:09:45.030Z,78.72
2019-01-13T02:10:45.019Z,78.21
2019-01-13T02:11:45.010Z,78.14
2019-01-13T02:12:45.013Z,77.11
2019-01-13T02:13:44.987Z,78.00
2019-01-13T02:14:44.978Z,77.11
2019-01-13T02:15:44.966Z,77.62
2019-01-13T02:16:44.954Z,77.83
2019-01-13T02:17:44.957Z,78.04
2019-01-13T02:18:44.934Z,78.34
2019-01-13T02:19:44.923Z,78.14
2019-01-13T02:20:45.044Z,77.73
2019-01-13T02:21:44.905Z,78.24
2019-01-13T02:22:44.918Z,78.14
2019-01-13T02:23:44.883Z,78.66
2019-01-13T02:24:44.867Z,78.49
2019-01-13T02:25:44.855Z,78.80
2019-01-13T02:26:44.851Z,78.80
2019-01-13T02:27:44.878Z,78.80
2019-01-13T02:28:44.827Z,78.69
2019-01-13T02:29:44.821Z,79.31
2019-01-13T02:30:48.956Z,79.93
2019-01-13T02:31:44.795Z,79.93
2019-01-13T02:32:44.791Z,79.93
2019-01-13T02:33:44.797Z,79.83
2019-01-13T02:34:44.777Z,79.72
2019-01-13T02:35:44.751Z,79.72
2019-01-13T02:36:44.740Z,79.31
2019-01-13T02:37:44.728Z,79.52
2019-01-13T02:38:44.748Z,79.72
2019-01-13T02:39:44.715Z,80.04
2019-01-13T02:40:44.703Z,80.24
2019-01-13T02:41:44.690Z,81.27
2019-01-13T02:42:44.673Z,80.65
2019-01-13T02:43:44.679Z,81.48
2019-01-13T02:44:44.673Z,81.37
2019-01-13T02:45:44.643Z,81.17
2019-01-13T02:46:44.635Z,81.68
2019-01-13T02:47:44.624Z,81.48
2019-01-13T02:48:44.634Z,82.20
2019-01-13T02:49:44.643Z,83.89
2019-01-13T02:50:44.600Z,84.92
2019-01-13T02:51:44.631Z,84.20
2019-01-13T02:52:44.567Z,85.33
2019-01-13T02:53:44.579Z,84.67
2019-01-13T02:54:44.542Z,86.02
2019-01-13T02:55:44.550Z,85.81
2019-01-13T02:56:44.559Z,87.26
2019-01-13T02:57:44.506Z,87.66
2019-01-13T02:58:44.506Z,88.18
2019-01-13T02:59:44.502Z,87.77
2019-01-13T03:00:44.480Z,86.43
2019-01-13T03:01:44.491Z,87.26
2019-01-13T03:02:44.454Z,86.74
2019-01-13T03:03:44.450Z,88.08
2019-01-13T03:04:44.439Z,88.14
2019-01-13T03:05:44.427Z,87.52
2019-01-13T03:06:44.445Z,88.04
2019-01-13T03:07:44.399Z,87.73
2019-01-13T03:08:44.387Z,86.90
2019-01-13T03:09:44.377Z,88.24
2019-01-13T03:10:44.374Z,85.77
2019-01-13T03:11:44.363Z,84.53
2019-01-13T03:12:44.377Z,85.57
2019-01-13T03:13:44.352Z,85.15
2019-01-13T03:14:44.322Z,84.53
2019-01-13T03:15:44.313Z,85.57
2019-01-13T03:16:44.339Z,85.83
2019-01-13T03:17:44.290Z,85.05
2019-01-13T03:18:44.288Z,85.46
2019-01-13T03:19:44.273Z,85.11
2019-01-13T03:20:44.260Z,84.49
2019-01-13T03:21:44.248Z,84.70
2019-01-13T03:22:44.268Z,85.01
2019-01-13T03:23:44.236Z,85.63
2019-01-13T03:24:44.226Z,85.11
2019-01-13T03:25:44.213Z,84.84
2019-01-13T03:26:44.204Z,87.32
2019-01-13T03:27:44.219Z,87.56
2019-01-13T03:28:44.178Z,87.05
2019-01-13T03:29:44.186Z,87.63
2019-01-13T03:30:44.159Z,88.04
2019-01-13T03:31:53.524Z,88.39
2019-01-13T03:32:44.136Z,88.56
2019-01-13T03:33:44.151Z,87.73
2019-01-13T03:34:44.114Z,88.14
2019-01-13T03:35:44.135Z,87.52
2019-01-13T03:36:44.086Z,89.07
2019-01-13T03:37:44.077Z,87.93
2019-01-13T03:38:44.105Z,86.43
2019-01-13T03:39:44.076Z,87.26
2019-01-13T03:40:44.060Z,88.08
2019-01-13T03:41:44.038Z,88.18
2019-01-13T03:42:44.034Z,88.08
2019-01-13T03:43:44.019Z,87.66
2019-01-13T03:44:44.042Z,87.05
2019-01-13T03:45:43.996Z,86.53
2019-01-13T03:46:43.989Z,88.08
2019-01-13T03:47:43.971Z,87.73
2019-01-13T03:48:43.963Z,87.42
2019-01-13T03:49:43.985Z,87.83
2019-01-13T03:50:43.943Z,85.97
2019-01-13T03:51:43.986Z,85.81
2019-01-13T03:52:43.923Z,87.35
2019-01-13T03:53:43.928Z,85.91
2019-01-13T03:54:43.911Z,85.81
2019-01-13T03:55:43.919Z,88.08
2019-01-13T03:56:43.873Z,87.77
2019-01-13T03:57:43.872Z,87.26
2019-01-13T03:58:43.850Z,86.74
2019-01-13T03:59:43.882Z,86.12
2019-01-13T04:00:43.869Z,86.94
2019-01-13T04:01:43.829Z,86.74
2019-01-13T04:02:43.819Z,86.02
2019-01-13T04:03:43.810Z,86.22
2019-01-13T04:04:43.792Z,85.91
2019-01-13T04:05:43.784Z,85.71
2019-01-13T04:06:43.793Z,86.32
2019-01-13T04:07:43.760Z,86.36
2019-01-13T04:08:43.748Z,87.08
2019-01-13T04:09:43.732Z,87.77
2019-01-13T04:10:43.724Z,87.81
2019-01-13T04:11:43.735Z,87.60
2019-01-13T04:12:43.779Z,87.56
2019-01-13T04:13:43.705Z,87.71
2019-01-13T04:14:43.688Z,87.05
2019-01-13T04:15:43.690Z,86.43
2019-01-13T04:16:43.697Z,87.35
2019-01-13T04:17:43.650Z,87.26
2019-01-13T04:18:43.654Z,86.53
2019-01-13T04:19:43.640Z,86.02
2019-01-13T04:20:43.673Z,85.71
2019-01-13T04:21:43.623Z,84.88
2019-01-13T04:22:43.619Z,86.12
2019-01-13T04:23:43.586Z,84.99
2019-01-13T04:24:43.592Z,85.81
2019-01-13T04:25:43.581Z,85.75
2019-01-13T04:26:43.565Z,87.26
2019-01-13T04:27:43.585Z,86.53
2019-01-13T04:28:43.577Z,87.15
2019-01-13T04:29:43.523Z,88.18
2019-01-13T04:30:43.520Z,88.70
2019-01-13T04:31:43.500Z,87.56
2019-01-13T04:32:43.490Z,88.43
2019-01-13T04:33:43.481Z,90.55
2019-01-13T04:34:43.502Z,89.62
2019-01-13T04:35:43.458Z,88.39
2019-01-13T04:36:43.454Z,88.53
2019-01-13T04:37:43.436Z,88.22
2019-01-13T04:38:43.437Z,89.62
2019-01-13T04:39:43.451Z,87.87
2019-01-13T04:40:43.424Z,88.59
2019-01-13T04:41:43.393Z,88.08
2019-01-13T04:42:43.395Z,88.49
2019-01-13T04:43:43.393Z,89.52
2019-01-13T04:44:43.399Z,88.08
2019-01-13T04:45:43.358Z,89.98
2019-01-13T04:46:43.349Z,89.11
2019-01-13T04:47:43.345Z,89.42
2019-01-13T04:48:43.314Z,90.80
2019-01-13T04:49:43.307Z,90.86
2019-01-13T04:50:43.317Z,90.14
2019-01-13T04:51:43.282Z,89.52
2019-01-13T04:52:43.275Z,89.73
2019-01-13T04:53:43.271Z,89.52
2019-01-13T04:54:43.251Z,89.69
2019-01-13T04:55:43.286Z,88.14
2019-01-13T04:56:43.239Z,87.42
2019-01-13T04:57:43.227Z,88.35
2019-01-13T04:58:43.211Z,86.18
2019-01-13T04:59:43.207Z,88.76
2019-01-13T05:00:43.188Z,88.56
2019-01-13T05:01:43.224Z,85.57
2019-01-13T05:02:43.179Z,84.94
2019-01-13T05:03:43.170Z,86.08
2019-01-13T05:04:43.167Z,86.60
2019-01-13T05:05:43.141Z,87.35
2019-01-13T05:06:43.128Z,85.97
2019-01-13T05:07:43.148Z,86.18
2019-01-13T05:08:43.116Z,84.84
2019-01-13T05:09:43.151Z,85.25
2019-01-13T05:10:43.086Z,85.05
2019-01-13T05:11:43.080Z,85.60
2019-01-13T05:12:43.067Z,85.71
2019-01-13T05:13:43.106Z,86.84
2019-01-13T05:14:43.035Z,86.74
2019-01-13T05:15:43.028Z,86.22
2019-01-13T05:16:43.025Z,86.32
2019-01-13T05:17:43.029Z,85.81
2019-01-13T05:18:43.020Z,86.63
2019-01-13T05:19:42.986Z,85.60
2019-01-13T05:20:42.969Z,86.12
2019-01-13T05:21:42.962Z,85.91
2019-01-13T05:22:42.955Z,86.02
2019-01-13T05:23:42.965Z,86.43
2019-01-13T05:24:42.969Z,86.68
2019-01-13T05:25:42.933Z,86.98
2019-01-13T05:26:42.906Z,87.50
2019-01-13T05:27:42.891Z,87.40
2019-01-13T05:28:42.897Z,87.08
2019-01-13T05:29:42.889Z,86.32
2019-01-13T05:30:42.892Z,87.56
2019-01-13T05:31:42.872Z,87.35
2019-01-13T05:32:42.838Z,86.53
2019-01-13T05:33:42.836Z,87.19
2019-01-13T05:34:42.827Z,87.46
2019-01-13T05:35:42.840Z,86.88
2019-01-13T05:36:42.811Z,87.87
2019-01-13T05:37:42.792Z,87.60
2019-01-13T05:38:42.782Z,87.50
2019-01-13T05:39:42.779Z,87.15
2019-01-13T05:40:42.792Z,87.29
2019-01-13T05:41:42.763Z,88.12
2019-01-13T05:42:42.737Z,87.71
2019-01-13T05:43:42.732Z,87.60
2019-01-13T05:44:42.720Z,88.43
2019-01-13T05:45:42.703Z,89.15
2019-01-13T05:46:42.728Z,89.98
2019-01-13T05:47:42.682Z,88.53
2019-01-13T05:48:42.677Z,89.77
2019-01-13T05:49:42.670Z,89.77
2019-01-13T05:50:42.698Z,89.05
2019-01-13T05:51:42.685Z,89.87
2019-01-13T05:52:42.648Z,89.15
2019-01-13T05:53:42.619Z,89.19
2019-01-13T05:54:42.607Z,90.74
2019-01-13T05:55:42.599Z,91.05
2019-01-13T05:56:42.607Z,90.64
2019-01-13T05:57:42.608Z,90.64
2019-01-13T05:58:42.599Z,90.22
2019-01-13T05:59:42.546Z,89.29
2019-01-13T06:00:42.584Z,88.98
2019-01-13T06:01:48.922Z,89.50
2019-01-13T06:02:43.528Z,89.19
2019-01-13T06:03:42.518Z,90.22
2019-01-13T06:04:42.517Z,89.71
2019-01-13T06:05:42.492Z,88.68
2019-01-13T06:06:42.502Z,87.71
2019-01-13T06:07:42.493Z,87.60
2019-01-13T06:08:42.475Z,87.74
2019-01-13T06:09:42.452Z,87.95
2019-01-13T06:10:42.447Z,87.60
2019-01-13T06:11:42.462Z,86.57
2019-01-13T06:12:42.415Z,86.61
2019-01-13T06:13:42.425Z,87.44
2019-01-13T06:14:42.394Z,87.08
2019-01-13T06:15:42.380Z,87.54
2019-01-13T06:16:42.384Z,87.92
2019-01-13T06:17:42.349Z,88.02
2019-01-13T06:18:42.371Z,88.32
2019-01-13T06:19:42.331Z,87.60
2019-01-13T06:20:42.325Z,88.43
2019-01-13T06:21:42.314Z,87.81
2019-01-13T06:22:42.306Z,88.84
2019-01-13T06:23:42.291Z,87.60
2019-01-13T06:24:42.298Z,87.60
2019-01-13T06:25:42.274Z,86.98
2019-01-13T06:26:42.252Z,86.78
2019-01-13T06:27:42.240Z,86.16
2019-01-13T06:28:42.234Z,86.26
2019-01-13T06:29:42.249Z,86.05
2019-01-13T06:30:42.238Z,85.64
2019-01-13T06:31:42.215Z,85.95
2019-01-13T06:32:51.563Z,85.60
2019-01-13T06:33:42.178Z,85.13
2019-01-13T06:34:42.168Z,85.23
2019-01-13T06:35:42.178Z,85.44
2019-01-13T06:36:42.137Z,85.71
2019-01-13T06:37:42.124Z,85.85
2019-01-13T06:38:42.119Z,85.75
2019-01-13T06:39:42.137Z,86.36
2019-01-13T06:40:42.130Z,86.36
2019-01-13T06:41:42.102Z,88.02
2019-01-13T06:42:42.072Z,87.92
2019-01-13T06:43:42.067Z,87.71
2019-01-13T06:44:42.060Z,87.60
2019-01-13T06:45:42.050Z,87.95
2019-01-13T06:46:42.051Z,87.65
2019-01-13T06:47:42.049Z,87.44
2019-01-13T06:48:42.012Z,87.95
2019-01-13T06:49:42.006Z,87.54
2019-01-13T06:50:42.003Z,87.34
2019-01-13T06:51:42.001Z,87.65
2019-01-13T06:52:41.966Z,86.57
2019-01-13T06:53:41.956Z,86.16
2019-01-13T06:54:41.940Z,86.30
2019-01-13T06:55:41.950Z,86.05
2019-01-13T06:56:41.949Z,85.64
2019-01-13T06:57:41.908Z,85.95
2019-01-13T06:58:41.903Z,85.33
2019-01-13T06:59:41.891Z,84.92
2019-01-13T07:00:41.900Z,84.81
2019-01-13T07:01:41.877Z,84.99
2019-01-13T07:02:41.886Z,84.78
2019-01-13T07:03:41.847Z,84.16
2019-01-13T07:04:41.846Z,84.47
2019-01-13T07:05:41.834Z,84.47
2019-01-13T07:06:41.834Z,84.47
2019-01-13T07:07:41.802Z,83.85
2019-01-13T07:08:41.786Z,83.85
2019-01-13T07:09:41.774Z,83.75
2019-01-13T07:10:41.770Z,84.27
2019-01-13T07:11:41.784Z,83.95
2019-01-13T07:12:41.757Z,84.47
2019-01-13T07:13:41.749Z,84.47
2019-01-13T07:14:41.722Z,84.57
2019-01-13T07:15:41.721Z,83.95
2019-01-13T07:16:41.730Z,84.27
2019-01-13T07:17:41.699Z,83.95
2019-01-13T07:18:41.692Z,83.95
2019-01-13T07:19:41.673Z,84.06
2019-01-13T07:20:41.656Z,84.16
2019-01-13T07:21:41.665Z,84.06
2019-01-13T07:22:43.040Z,84.51
2019-01-13T07:23:41.632Z,84.47
2019-01-13T07:24:41.619Z,84.36
2019-01-13T07:25:41.609Z,84.41
2019-01-13T07:26:41.628Z,84.67
2019-01-13T07:27:41.578Z,85.02
2019-01-13T07:28:41.573Z,84.72
2019-01-13T07:29:41.564Z,84.41
2019-01-13T07:30:41.557Z,84.47
2019-01-13T07:31:41.544Z,84.92
2019-01-13T07:32:41.555Z,85.09
2019-01-13T07:33:41.516Z,84.47
2019-01-13T07:34:41.508Z,84.47
2019-01-13T07:35:41.503Z,84.36
2019-01-13T07:36:41.489Z,84.57
2019-01-13T07:37:41.491Z,83.75
2019-01-13T07:38:41.490Z,83.85
2019-01-13T07:39:41.483Z,84.27
2019-01-13T07:40:41.437Z,85.19
2019-01-13T07:41:41.459Z,84.47
2019-01-13T07:42:41.433Z,84.88
2019-01-13T07:43:41.415Z,84.78
2019-01-13T07:44:41.401Z,84.47
2019-01-13T07:45:41.460Z,84.47
2019-01-13T07:46:41.375Z,84.27
2019-01-13T07:47:41.517Z,84.47
2019-01-13T07:48:41.385Z,84.47
2019-01-13T07:49:41.365Z,83.44
2019-01-13T07:50:41.336Z,83.54
2019-01-13T07:51:41.319Z,84.27
2019-01-13T07:52:41.310Z,83.85
2019-01-13T07:53:41.300Z,83.54
2019-01-13T07:54:41.316Z,83.54
2019-01-13T07:55:41.282Z,83.81
2019-01-13T07:56:41.265Z,83.61
2019-01-13T07:57:41.251Z,84.01
2019-01-13T07:58:41.273Z,82.89
2019-01-13T07:59:41.237Z,82.68
2019-01-13T08:00:41.227Z,83.09
2019-01-13T08:01:41.222Z,83.09
2019-01-13T08:02:41.267Z,83.50
2019-01-13T08:03:41.234Z,83.29
2019-01-13T08:04:41.182Z,83.13
2019-01-13T08:05:41.177Z,83.29
2019-01-13T08:06:41.159Z,82.89
2019-01-13T08:07:41.150Z,82.89
2019-01-13T08:08:41.135Z,82.92
2019-01-13T08:09:41.148Z,82.68
2019-01-13T08:10:41.120Z,82.47
2019-01-13T08:11:41.117Z,82.78
2019-01-13T08:12:41.121Z,82.57
2019-01-13T08:13:41.109Z,82.47
2019-01-13T08:14:41.097Z,81.92
2019-01-13T08:15:41.055Z,82.57
2019-01-13T08:16:41.045Z,82.57
2019-01-13T08:17:41.036Z,82.02
2019-01-13T08:18:41.040Z,82.47
2019-01-13T08:19:41.045Z,82.26
2019-01-13T08:20:41.007Z,82.23
2019-01-13T08:21:40.993Z,81.85
2019-01-13T08:22:40.996Z,82.33
2019-01-13T08:23:40.980Z,82.64
2019-01-13T08:24:41.001Z,82.54
2019-01-13T08:25:40.958Z,82.47
2019-01-13T08:26:40.939Z,82.47
2019-01-13T08:27:40.927Z,82.06
2019-01-13T08:28:40.920Z,82.98
2019-01-13T08:29:40.929Z,83.09
2019-01-13T08:30:40.905Z,82.98
2019-01-13T08:31:40.894Z,82.47
2019-01-13T08:32:40.894Z,82.54
2019-01-13T08:33:40.871Z,82.12
2019-01-13T08:34:49.977Z,82.12
2019-01-13T08:35:40.853Z,81.67
2019-01-13T08:36:40.917Z,82.50
2019-01-13T08:37:50.152Z,82.02
2019-01-13T08:38:49.706Z,81.92
2019-01-13T08:39:40.834Z,82.23
2019-01-13T08:40:40.786Z,81.98
2019-01-13T08:41:40.783Z,82.12
2019-01-13T08:42:40.799Z,82.12
2019-01-13T08:43:40.833Z,81.92
2019-01-13T08:44:40.778Z,82.33
2019-01-13T08:45:42.112Z,82.43
2019-01-13T08:46:40.722Z,82.02
2019-01-13T08:47:49.735Z,81.71
2019-01-13T08:48:49.267Z,82.23
2019-01-13T08:49:49.790Z,82.02
2019-01-13T08:50:49.352Z,81.92
2019-01-13T08:51:49.363Z,82.54
2019-01-13T08:52:49.400Z,82.54
2019-01-13T08:53:50.432Z,82.64
2019-01-13T08:54:40.675Z,82.95
2019-01-13T08:55:40.658Z,82.95
2019-01-13T08:56:40.633Z,83.36
2019-01-13T08:57:40.609Z,83.56
2019-01-13T08:58:40.595Z,82.95
2019-01-13T08:59:40.592Z,82.54
2019-01-13T09:00:40.595Z,83.77
2019-01-13T09:01:40.559Z,83.26
2019-01-13T09:02:40.565Z,84.08
2019-01-13T09:03:40.545Z,83.67
2019-01-13T09:04:40.545Z,83.77
2019-01-13T09:05:40.553Z,83.77
2019-01-13T09:06:40.515Z,83.56
2019-01-13T09:07:40.514Z,84.19
2019-01-13T09:08:40.503Z,84.08
2019-01-13T09:09:40.486Z,84.80
2019-01-13T09:10:40.497Z,84.70
2019-01-13T09:11:40.488Z,84.49
2019-01-13T09:12:40.457Z,85.11
2019-01-13T09:13:40.445Z,86.04
2019-01-13T09:14:40.443Z,85.87
2019-01-13T09:15:40.468Z,87.52
2019-01-13T09:16:40.416Z,87.59
2019-01-13T09:17:40.445Z,87.83
2019-01-13T09:18:40.405Z,87.73
2019-01-13T09:19:40.373Z,87.87
2019-01-13T09:20:40.376Z,88.45
2019-01-13T09:21:40.393Z,88.90
2019-01-13T09:22:40.357Z,89.17
2019-01-13T09:23:40.328Z,88.18
2019-01-13T09:24:40.325Z,88.35
2019-01-13T09:25:40.310Z,89.07
2019-01-13T09:26:40.305Z,87.52
2019-01-13T09:27:40.327Z,88.04
2019-01-13T09:28:40.287Z,87.83
2019-01-13T09:29:42.515Z,87.73
2019-01-13T09:30:40.252Z,88.24
2019-01-13T09:31:40.254Z,88.45
2019-01-13T09:32:40.236Z,88.24
2019-01-13T09:33:40.262Z,89.17
2019-01-13T09:34:40.220Z,88.65
2019-01-13T09:35:40.209Z,88.35
2019-01-13T09:36:40.193Z,89.28
2019-01-13T09:37:40.183Z,89.17
2019-01-13T09:38:40.177Z,88.29
2019-01-13T09:39:40.207Z,89.69
2019-01-13T09:40:40.155Z,90.04
2019-01-13T09:41:40.152Z,88.96
2019-01-13T09:42:40.125Z,88.86
2019-01-13T09:43:40.197Z,88.90
2019-01-13T09:44:40.129Z,89.83
2019-01-13T09:45:40.135Z,89.73
2019-01-13T09:46:40.102Z,89.48
2019-01-13T09:47:40.082Z,89.22
2019-01-13T09:48:40.093Z,88.49
2019-01-13T09:49:40.058Z,88.59
2019-01-13T09:50:40.105Z,88.70
2019-01-13T09:51:40.048Z,89.73
2019-01-13T09:52:40.041Z,89.22
2019-01-13T09:53:40.025Z,89.52
2019-01-13T09:54:40.024Z,89.73
2019-01-13T09:55:39.987Z,89.94
2019-01-13T09:56:40.078Z,90.35
2019-01-13T09:57:39.964Z,89.94
2019-01-13T09:58:39.963Z,89.62
2019-01-13T09:59:39.951Z,90.76
2019-01-13T10:00:39.937Z,89.42
2019-01-13T10:01:39.927Z,89.83
2019-01-13T10:02:46.469Z,89.67
2019-01-13T10:03:40.901Z,90.04
2019-01-13T10:04:39.953Z,90.08
2019-01-13T10:05:39.883Z,90.04
2019-01-13T10:06:39.898Z,90.25
2019-01-13T10:07:39.910Z,89.73
2019-01-13T10:08:39.871Z,89.94
2019-01-13T10:09:39.880Z,89.94
2019-01-13T10:10:39.830Z,90.14
2019-01-13T10:11:39.825Z,89.87
2019-01-13T10:12:39.842Z,90.55
2019-01-13T10:13:39.801Z,90.28
2019-01-13T10:14:39.784Z,90.66
2019-01-13T10:15:39.788Z,90.66
2019-01-13T10:16:39.764Z,90.14
2019-01-13T10:17:39.746Z,89.83
2019-01-13T10:18:39.792Z,89.98
2019-01-13T10:19:39.736Z,90.86
2019-01-13T10:20:39.726Z,90.86
2019-01-13T10:21:39.761Z,90.66
2019-01-13T10:22:39.757Z,90.66
2019-01-13T10:23:39.691Z,90.76
2019-01-13T10:24:39.678Z,90.55
2019-01-13T10:25:39.676Z,89.73
2019-01-13T10:26:39.658Z,89.42
2019-01-13T10:27:39.643Z,89.83
2019-01-13T10:28:39.655Z,89.32
2019-01-13T10:29:39.621Z,89.73
2019-01-13T10:30:39.619Z,89.94
2019-01-13T10:31:39.603Z,89.42
2019-01-13T10:32:39.624Z,88.39
2019-01-13T10:33:39.582Z,88.18
2019-01-13T10:34:39.593Z,88.29
2019-01-13T10:35:39.607Z,89.22
2019-01-13T10:36:39.596Z,88.80
2019-01-13T10:37:39.594Z,88.08
2019-01-13T10:38:39.573Z,88.80
2019-01-13T10:39:39.572Z,88.56
2019-01-13T10:40:39.549Z,88.39
2019-01-13T10:41:39.525Z,88.80
2019-01-13T10:42:39.521Z,87.93
2019-01-13T10:43:39.507Z,88.39
2019-01-13T10:44:39.465Z,88.35
2019-01-13T10:45:39.459Z,88.80
2019-01-13T10:46:39.440Z,89.58
2019-01-13T10:47:39.432Z,89.89
2019-01-13T10:48:39.481Z,88.96
2019-01-13T10:49:39.403Z,90.10
2019-01-13T10:50:39.403Z,89.48
2019-01-13T10:51:39.387Z,89.28
2019-01-13T10:52:39.381Z,88.35
2019-01-13T10:53:39.374Z,88.24
2019-01-13T10:54:39.381Z,88.04
2019-01-13T10:55:39.344Z,87.79
2019-01-13T10:56:39.381Z,88.31
2019-01-13T10:57:39.357Z,87.93
2019-01-13T10:58:39.334Z,88.41
2019-01-13T10:59:39.346Z,88.65
2019-01-13T11:00:39.284Z,88.14
2019-01-13T11:01:39.274Z,87.73
2019-01-13T11:02:39.316Z,87.42
2019-01-13T11:03:39.285Z,88.04
2019-01-13T11:04:39.248Z,87.73
2019-01-13T11:05:39.238Z,88.14
2019-01-13T11:06:40.207Z,88.24
2019-01-13T11:07:39.216Z,87.73
2019-01-13T11:08:39.227Z,87.59
2019-01-13T11:09:39.190Z,87.59
2019-01-13T11:10:39.223Z,87.73
2019-01-13T11:11:39.191Z,87.73
2019-01-13T11:12:39.157Z,87.73
2019-01-13T11:13:39.178Z,87.63
2019-01-13T11:14:39.177Z,88.49
2019-01-13T11:15:39.137Z,88.04
2019-01-13T11:16:39.174Z,90.20
2019-01-13T11:17:39.122Z,89.07
2019-01-13T11:18:39.097Z,89.22
2019-01-13T11:19:39.106Z,90.45
2019-01-13T11:20:39.070Z,90.61
2019-01-13T11:21:39.062Z,90.55
2019-01-13T11:22:39.089Z,90.72
2019-01-13T11:23:39.058Z,89.58
2019-01-13T11:24:39.037Z,88.86
2019-01-13T11:25:39.029Z,89.83
2019-01-13T11:26:39.009Z,91.24
2019-01-13T11:27:39.001Z,89.79
2019-01-13T11:28:39.017Z,90.10
2019-01-13T11:29:38.980Z,90.31
2019-01-13T11:30:38.986Z,89.79
2019-01-13T11:31:38.952Z,89.79
2019-01-13T11:32:38.952Z,89.48
2019-01-13T11:33:38.934Z,89.79
2019-01-13T11:34:38.966Z,91.34
2019-01-13T11:35:38.932Z,90.41
2019-01-13T11:36:38.908Z,90.61
2019-01-13T11:37:38.903Z,90.72
2019-01-13T11:38:38.899Z,91.34
2019-01-13T11:39:38.869Z,91.24
2019-01-13T11:40:38.867Z,92.41
2019-01-13T11:41:38.844Z,91.28
2019-01-13T11:42:38.927Z,91.69
2019-01-13T11:43:38.857Z,92.51
2019-01-13T11:44:38.818Z,91.69
2019-01-13T11:45:38.837Z,92.55
2019-01-13T11:46:38.807Z,92.35
2019-01-13T11:47:38.787Z,93.28
2019-01-13T11:48:38.780Z,94.35
2019-01-13T11:49:38.853Z,94.35
2019-01-13T11:50:38.748Z,94.52
2019-01-13T11:51:38.764Z,95.76
2019-01-13T11:52:38.726Z,95.14
2019-01-13T11:53:38.718Z,95.65
2019-01-13T11:54:38.714Z,95.55
2019-01-13T11:55:38.716Z,95.24
2019-01-13T11:56:38.715Z,95.61
2019-01-13T11:57:38.677Z,94.72
2019-01-13T11:58:38.667Z,93.65
2019-01-13T11:59:38.652Z,93.79
2019-01-13T12:00:38.652Z,94.72
2019-01-13T12:01:38.661Z,95.55
2019-01-13T12:02:38.623Z,94.42
2019-01-13T12:03:38.608Z,93.22
2019-01-13T12:04:38.598Z,94.25
2019-01-13T12:05:38.619Z,93.94
2019-01-13T12:06:38.581Z,93.84
2019-01-13T12:07:38.604Z,95.07
2019-01-13T12:08:38.559Z,94.35
2019-01-13T12:09:38.559Z,95.18
2019-01-13T12:10:38.533Z,94.62
2019-01-13T12:11:38.524Z,95.86
2019-01-13T12:12:38.509Z,94.97
2019-01-13T12:13:38.558Z,94.97
2019-01-13T12:14:38.494Z,95.70
2019-01-13T12:15:38.486Z,96.17
2019-01-13T12:16:38.516Z,95.55
2019-01-13T12:17:38.453Z,93.94
2019-01-13T12:18:40.674Z,94.97
2019-01-13T12:19:38.472Z,95.28
2019-01-13T12:20:38.521Z,94.46
2019-01-13T12:21:38.417Z,95.18
2019-01-13T12:22:38.399Z,95.07
2019-01-13T12:23:38.393Z,95.28
2019-01-13T12:24:38.377Z,95.90
2019-01-13T12:25:38.402Z,95.28
2019-01-13T12:26:38.371Z,95.18
2019-01-13T12:27:38.349Z,94.87
2019-01-13T12:28:38.344Z,95.80
2019-01-13T12:29:38.329Z,95.80
2019-01-13T12:30:38.332Z,95.90
2019-01-13T12:31:38.299Z,96.52
2019-01-13T12:32:46.999Z,96.31
2019-01-13T12:33:38.276Z,96.21
2019-01-13T12:34:38.265Z,96.21
2019-01-13T12:35:38.308Z,96.52
2019-01-13T12:36:38.278Z,96.73
2019-01-13T12:37:38.241Z,96.42
2019-01-13T12:38:38.227Z,95.80
2019-01-13T12:39:38.214Z,96.42
2019-01-13T12:40:38.223Z,96.42
2019-01-13T12:41:38.189Z,97.09
2019-01-13T12:42:38.257Z,97.14
2019-01-13T12:43:38.226Z,96.11
2019-01-13T12:44:38.162Z,97.45
2019-01-13T12:45:38.187Z,96.42
2019-01-13T12:46:38.131Z,96.01
2019-01-13T12:47:38.136Z,96.21
2019-01-13T12:48:38.114Z,96.89
2019-01-13T12:49:38.105Z,96.06
2019-01-13T12:50:38.097Z,96.37
2019-01-13T12:51:38.118Z,95.45
2019-01-13T12:52:38.069Z,96.37